Esperanza — PD6464 — position and weather

sailwx.info

Track history (hours):
 
Tides and Currents Weather Stations Pressure Air Temp Water Temp Dewpoint Dewpoint Depression Visibility Wind Speed Wind Dir Waves Ship Positions

Esperanza

Last reported at 2018-Apr-03 14:07 UTC. Time now 2018-Apr-23 17:06 UTC.
Position S 00°08' W 047°50'.
Warning: this ship's position is 20 days out of date.

Length 72 m; draft 4.9 m.

Type: Other ship. MMSI: 244690000.

Date/timePositionNaut miles runAvg speedWind from/ knotsBaromVisibWave heightAir tempDewpointWater temp
2018-Apr-03 14:07S 00°08' W 047°50'0 0.0
2018-Apr-03 14:00S 00°08' W 047°50'3 5.6
2018-Apr-03 13:30S 00°11' W 047°51'4 7.2
2018-Apr-03 13:01S 00°13' W 047°53'3 6.6
2018-Apr-03 12:30S 00°16' W 047°56'3 6.3
2018-Apr-03 11:58S 00°18' W 047°58'3 6.5
2018-Apr-03 11:30S 00°19' W 048°01'3 6.7
2018-Apr-03 11:00S 00°21' W 048°04'5 7.6
2018-Apr-03 10:22S 00°22' W 048°09'2011.7
2018-Apr-03 08:37S 00°37' W 048°22'312.8
2018-Apr-03 08:23S 00°40' W 048°24'513.0
2018-Apr-03 08:00S 00°44' W 048°26'612.9
2018-Apr-03 07:31S 00°50' W 048°29'611.0
2018-Apr-03 07:00S 00°55' W 048°27'510.7
2018-Apr-03 06:29S 01°01' W 048°27'4 7.7
2018-Apr-03 06:00S 01°04' W 048°28'510.5
2018-Apr-03 05:30S 01°09' W 048°29'611.4
2018-Apr-03 05:00S 01°15' W 048°30'510.6
2018-Apr-03 04:30S 01°20' W 048°29'5 9.2
2018-Apr-03 04:00S 01°25' W 048°30'2 3.6
2018-Apr-03 03:29S 01°27' W 048°30'0 0.0
2018-Apr-03 02:59S 01°27' W 048°30'0 0.0
2018-Apr-03 02:29S 01°27' W 048°30'0 0.0
2018-Apr-03 01:59S 01°27' W 048°30'0 0.0
2018-Apr-03 01:29S 01°27' W 048°30'0 0.0
2018-Apr-03 00:59S 01°27' W 048°30'0 0.0
2018-Apr-03 00:29S 01°27' W 048°30'0 0.0
2018-Apr-02 23:59S 01°27' W 048°30'0 0.0
2018-Apr-02 23:04S 01°27' W 048°30'0 0.0
2018-Apr-02 22:31S 01°27' W 048°30'0 0.0
2018-Apr-02 22:30S 01°27' W 048°30'0 0.0
2018-Apr-02 21:59S 01°27' W 048°30'0 0.0
2018-Apr-02 21:30S 01°27' W 048°30'0 0.0
2018-Apr-02 21:00S 01°27' W 048°30'0 0.0
2018-Apr-02 20:30S 01°27' W 048°30'0 0.0
2018-Apr-02 19:59S 01°27' W 048°30'0 0.0
2018-Apr-02 19:30S 01°27' W 048°30'0 0.0
2018-Apr-02 19:00S 01°27' W 048°30'0 0.0
2018-Apr-02 18:29S 01°27' W 048°30'0 0.0
2018-Apr-02 18:00S 01°27' W 048°30'0 0.0
2018-Apr-02 17:30S 01°27' W 048°30'0 0.0
2018-Apr-02 17:00S 01°27' W 048°30'0 0.0
2018-Apr-02 16:30S 01°27' W 048°30'0 0.0
2018-Apr-02 15:58S 01°27' W 048°30'0 0.0
2018-Apr-02 15:31S 01°27' W 048°30'0 0.0
2018-Apr-02 14:54S 01°27' W 048°30'0 0.0
2018-Apr-02 14:29S 01°27' W 048°30'0 0.0
2018-Apr-02 13:56S 01°27' W 048°30'0 0.0
2018-Apr-02 13:29S 01°27' W 048°30'0 0.0
2018-Apr-02 12:59S 01°27' W 048°30'0 0.0
2018-Apr-02 12:29S 01°27' W 048°30'0 0.0
2018-Apr-02 11:59S 01°27' W 048°30'0 0.0
2018-Apr-02 11:30S 01°27' W 048°30'0 0.0
2018-Apr-02 10:53S 01°27' W 048°30'0 0.0
2018-Apr-02 10:27S 01°27' W 048°30'0 0.0
2018-Apr-02 09:59S 01°27' W 048°30'0 0.0
2018-Apr-02 09:30S 01°27' W 048°30'0 0.0
2018-Apr-02 08:59S 01°27' W 048°30'0 0.0
2018-Apr-02 08:29S 01°27' W 048°30'0 0.0
2018-Apr-02 07:59S 01°27' W 048°30'0 0.0
2018-Apr-02 07:30S 01°27' W 048°30'0 0.0
2018-Apr-02 07:00S 01°27' W 048°30'0 0.0
2018-Apr-02 06:29S 01°27' W 048°30'0 0.0
2018-Apr-02 06:00S 01°27' W 048°30'0 0.0
2018-Apr-02 05:29S 01°27' W 048°30'0 0.0
2018-Apr-02 04:59S 01°27' W 048°30'0 0.0
2018-Apr-02 04:23S 01°27' W 048°30'0 0.0
2018-Apr-02 03:59S 01°27' W 048°30'0 0.0
2018-Apr-02 03:29S 01°27' W 048°30'0 0.0
2018-Apr-02 02:59S 01°27' W 048°30'0 0.0
2018-Apr-02 02:29S 01°27' W 048°30'0 0.0
2018-Apr-02 01:59S 01°27' W 048°30'0 0.0
2018-Apr-02 01:29S 01°27' W 048°30'0 0.0
2018-Apr-02 00:59S 01°27' W 048°30'0 0.0
2018-Apr-02 00:29S 01°27' W 048°30'0 0.0
2018-Apr-01 23:59S 01°27' W 048°30'0 0.0
2018-Apr-01 23:29S 01°27' W 048°30'0 0.0
2018-Apr-01 22:59S 01°27' W 048°30'0 0.0
2018-Apr-01 22:26S 01°27' W 048°30'0 0.0
2018-Apr-01 21:56S 01°27' W 048°30'0 0.0
2018-Apr-01 21:26S 01°27' W 048°30'0 0.0
2018-Apr-01 20:59S 01°27' W 048°30'0 0.0
2018-Apr-01 20:29S 01°27' W 048°30'0 0.0
2018-Apr-01 19:59S 01°27' W 048°30'0 0.0
2018-Apr-01 19:29S 01°27' W 048°30'0 0.0
2018-Apr-01 18:59S 01°27' W 048°30'0 0.0
2018-Apr-01 18:23S 01°27' W 048°30'0 0.0
2018-Apr-01 17:59S 01°27' W 048°30'0 0.0
2018-Apr-01 17:29S 01°27' W 048°30'0 0.0
2018-Apr-01 16:59S 01°27' W 048°30'0 0.0
2018-Apr-01 16:29S 01°27' W 048°30'0 0.0
2018-Apr-01 15:56S 01°27' W 048°30'0 0.0
2018-Apr-01 15:29S 01°27' W 048°30'0 0.0
2018-Apr-01 14:59S 01°27' W 048°30'0 0.0
2018-Apr-01 14:29S 01°27' W 048°30'0 0.0
2018-Apr-01 13:59S 01°27' W 048°30'0 0.0
2018-Apr-01 13:29S 01°27' W 048°30'0 0.0
2018-Apr-01 12:59S 01°27' W 048°30'0 0.0
2018-Apr-01 12:08S 01°27' W 048°30'0 0.0
2018-Apr-01 11:59S 01°27' W 048°30'0 0.0
2018-Apr-01 11:29S 01°27' W 048°30'0 0.0
2018-Apr-01 10:56S 01°27' W 048°30'0 0.0
2018-Apr-01 10:30S 01°27' W 048°30'0 0.0
2018-Apr-01 09:56S 01°27' W 048°30'0 0.0
2018-Apr-01 09:30S 01°27' W 048°30'0 0.0
2018-Apr-01 09:00S 01°27' W 048°30'0 0.0
2018-Apr-01 08:29S 01°27' W 048°30'0 0.0
2018-Apr-01 07:59S 01°27' W 048°30'0 0.0
2018-Apr-01 07:29S 01°27' W 048°30'0 0.0
2018-Apr-01 06:59S 01°27' W 048°30'0 0.0
2018-Apr-01 06:30S 01°27' W 048°30'0 0.0
2018-Apr-01 06:00S 01°27' W 048°30'0 0.0
2018-Apr-01 05:29S 01°27' W 048°30'0 0.0
2018-Apr-01 04:56S 01°27' W 048°30'0 0.0
2018-Apr-01 04:23S 01°27' W 048°30'0 0.0
2018-Apr-01 03:59S 01°27' W 048°30'0 0.0
2018-Apr-01 03:29S 01°27' W 048°30'0 0.0
2018-Apr-01 02:59S 01°27' W 048°30'0 0.0
2018-Apr-01 02:26S 01°27' W 048°30'0 0.0
2018-Apr-01 01:59S 01°27' W 048°30'0 0.0
2018-Apr-01 01:29S 01°27' W 048°30'0 0.0
2018-Apr-01 00:59S 01°27' W 048°30'0 0.0
2018-Apr-01 00:29S 01°27' W 048°30'0 0.0
2018-Mar-31 23:59S 01°27' W 048°30'0 0.0
2018-Mar-31 23:29S 01°27' W 048°30'0 0.0
2018-Mar-31 22:57S 01°27' W 048°30'0 0.0
2018-Mar-31 22:29S 01°27' W 048°30'0 0.0
2018-Mar-31 21:59S 01°27' W 048°30'0 0.0
2018-Mar-31 21:29S 01°27' W 048°30'0 0.0
2018-Mar-31 20:59S 01°27' W 048°30'0 0.0
2018-Mar-31 20:29S 01°27' W 048°30'0 0.0
2018-Mar-31 19:53S 01°27' W 048°30'0 0.0
2018-Mar-31 19:29S 01°27' W 048°30'0 0.0
2018-Mar-31 18:59S 01°27' W 048°30'0 0.0
2018-Mar-31 18:29S 01°27' W 048°30'0 0.0
2018-Mar-31 17:59S 01°27' W 048°30'0 0.0
2018-Mar-31 17:29S 01°27' W 048°30'0 0.0
2018-Mar-31 16:59S 01°27' W 048°30'0 0.0
2018-Mar-31 16:29S 01°27' W 048°30'0 0.0
2018-Mar-31 15:59S 01°27' W 048°30'0 0.0
2018-Mar-31 15:29S 01°27' W 048°30'0 0.0
2018-Mar-31 14:59S 01°27' W 048°30'0 0.0
2018-Mar-31 14:29S 01°27' W 048°30'0 0.0
2018-Mar-31 13:59S 01°27' W 048°30'0 0.0
2018-Mar-31 13:29S 01°27' W 048°30'0 0.0
2018-Mar-31 12:59S 01°27' W 048°30'0 0.0
2018-Mar-31 12:29S 01°27' W 048°30'0 0.0
2018-Mar-31 11:59S 01°27' W 048°30'0 0.0
2018-Mar-31 11:29S 01°27' W 048°30'0 0.0
2018-Mar-31 11:00S 01°27' W 048°30'0 0.0
2018-Mar-31 10:30S 01°27' W 048°30'0 0.0
2018-Mar-31 10:00S 01°27' W 048°30'0 0.0
2018-Mar-31 09:30S 01°27' W 048°30'0 0.0
2018-Mar-31 09:00S 01°27' W 048°30'0 0.0
2018-Mar-31 08:30S 01°27' W 048°30'0 0.0
2018-Mar-31 08:00S 01°27' W 048°30'0 0.0
2018-Mar-31 07:30S 01°27' W 048°30'0 0.0
2018-Mar-31 06:59S 01°27' W 048°30'0 0.0
2018-Mar-31 06:30S 01°27' W 048°30'0 0.0
2018-Mar-31 05:59S 01°27' W 048°30'0 0.0
2018-Mar-31 05:26S 01°27' W 048°30'0 0.0
2018-Mar-31 04:56S 01°27' W 048°30'0 0.0
2018-Mar-31 04:29S 01°27' W 048°30'0 0.0
2018-Mar-31 03:56S 01°27' W 048°30'0 0.0
2018-Mar-31 03:29S 01°27' W 048°30'0 0.0
2018-Mar-31 02:56S 01°27' W 048°30'0 0.0
2018-Mar-31 02:29S 01°27' W 048°30'0 0.0
2018-Mar-31 01:59S 01°27' W 048°30'0 0.0
2018-Mar-31 01:29S 01°27' W 048°30'0 0.0
2018-Mar-31 00:59S 01°27' W 048°30'0 0.0
2018-Mar-31 00:29S 01°27' W 048°30'0 0.0
2018-Mar-30 23:59S 01°27' W 048°30'0 0.0
2018-Mar-30 23:29S 01°27' W 048°30'0 0.0
2018-Mar-30 22:59S 01°27' W 048°30'0 0.0
2018-Mar-30 22:29S 01°27' W 048°30'0 0.0
2018-Mar-30 21:58S 01°27' W 048°30'0 0.0
2018-Mar-30 21:29S 01°27' W 048°30'0 0.0
2018-Mar-30 20:59S 01°27' W 048°30'0 0.0
2018-Mar-30 20:29S 01°27' W 048°30'0 0.0
2018-Mar-30 19:59S 01°27' W 048°30'0 0.0
2018-Mar-30 19:27S 01°27' W 048°30'0 0.0
2018-Mar-30 18:59S 01°27' W 048°30'0 0.0
2018-Mar-30 18:29S 01°27' W 048°30'0 0.0
2018-Mar-30 17:56S 01°27' W 048°30'0 0.0
2018-Mar-30 17:29S 01°27' W 048°30'0 0.0
2018-Mar-30 16:53S 01°27' W 048°30'0 0.0
2018-Mar-30 16:29S 01°27' W 048°30'0 0.0
2018-Mar-30 15:59S 01°27' W 048°30'0 0.0
2018-Mar-30 15:26S 01°27' W 048°30'0 0.0
2018-Mar-30 14:59S 01°27' W 048°30'0 0.0
2018-Mar-30 14:28S 01°27' W 048°30'0 0.0
2018-Mar-30 13:58S 01°27' W 048°30'0 0.0
2018-Mar-30 13:30S 01°27' W 048°30'1 2.1
2018-Mar-30 13:00S 01°26' W 048°30'510.7
2018-Mar-30 12:30S 01°21' W 048°29'612.8
2018-Mar-30 12:00S 01°14' W 048°30'612.3
2018-Mar-30 11:30S 01°08' W 048°29'53 5.8
2018-Mar-30 02:13S 00°21' W 048°04'1 5.7
2018-Mar-30 02:00S 00°20' W 048°03'3 5.8
2018-Mar-30 01:30S 00°19' W 048°01'3 5.8
2018-Mar-30 01:01S 00°18' W 047°58'13 5.7
2018-Mar-29 22:39S 00°08' W 047°48'21 4.2
2018-Mar-29 17:40N 00°08' W 047°35'2 5.8
2018-Mar-29 17:21N 00°09' W 047°34'2 4.6
2018-Mar-29 16:59N 00°10' W 047°33'  
Track history (hours):
 
Tides and Currents Weather Stations Pressure Air Temp Water Temp Dewpoint Dewpoint Depression Visibility Wind Speed Wind Dir Waves Ship Positions

Esperanza

Last reported at 2018-Apr-03 14:07 UTC. Time now 2018-Apr-23 17:06 UTC.
Position S 00°08' W 047°50'.
Warning: this ship's position is 20 days out of date.

Length 72 m; draft 4.9 m.

Type: Other ship. MMSI: 244690000.

Date/timePositionNaut miles runAvg speedWind from/ knotsBaromVisibWave heightAir tempDewpointWater temp
2018-Apr-03 14:07S 00°08' W 047°50'0 0.0
2018-Apr-03 14:00S 00°08' W 047°50'3 5.6
2018-Apr-03 13:30S 00°11' W 047°51'4 7.2
2018-Apr-03 13:01S 00°13' W 047°53'3 6.6
2018-Apr-03 12:30S 00°16' W 047°56'3 6.3
2018-Apr-03 11:58S 00°18' W 047°58'3 6.5
2018-Apr-03 11:30S 00°19' W 048°01'3 6.7
2018-Apr-03 11:00S 00°21' W 048°04'5 7.6
2018-Apr-03 10:22S 00°22' W 048°09'2011.7
2018-Apr-03 08:37S 00°37' W 048°22'312.8
2018-Apr-03 08:23S 00°40' W 048°24'513.0
2018-Apr-03 08:00S 00°44' W 048°26'612.9
2018-Apr-03 07:31S 00°50' W 048°29'611.0
2018-Apr-03 07:00S 00°55' W 048°27'510.7
2018-Apr-03 06:29S 01°01' W 048°27'4 7.7
2018-Apr-03 06:00S 01°04' W 048°28'510.5
2018-Apr-03 05:30S 01°09' W 048°29'611.4
2018-Apr-03 05:00S 01°15' W 048°30'510.6
2018-Apr-03 04:30S 01°20' W 048°29'5 9.2
2018-Apr-03 04:00S 01°25' W 048°30'2 3.6
2018-Apr-03 03:29S 01°27' W 048°30'0 0.0
2018-Apr-03 02:59S 01°27' W 048°30'0 0.0
2018-Apr-03 02:29S 01°27' W 048°30'0 0.0
2018-Apr-03 01:59S 01°27' W 048°30'0 0.0
2018-Apr-03 01:29S 01°27' W 048°30'0 0.0
2018-Apr-03 00:59S 01°27' W 048°30'0 0.0
2018-Apr-03 00:29S 01°27' W 048°30'0 0.0
2018-Apr-02 23:59S 01°27' W 048°30'0 0.0
2018-Apr-02 23:04S 01°27' W 048°30'0 0.0
2018-Apr-02 22:31S 01°27' W 048°30'0 0.0
2018-Apr-02 22:30S 01°27' W 048°30'0 0.0
2018-Apr-02 21:59S 01°27' W 048°30'0 0.0
2018-Apr-02 21:30S 01°27' W 048°30'0 0.0
2018-Apr-02 21:00S 01°27' W 048°30'0 0.0
2018-Apr-02 20:30S 01°27' W 048°30'0 0.0
2018-Apr-02 19:59S 01°27' W 048°30'0 0.0
2018-Apr-02 19:30S 01°27' W 048°30'0 0.0
2018-Apr-02 19:00S 01°27' W 048°30'0 0.0
2018-Apr-02 18:29S 01°27' W 048°30'0 0.0
2018-Apr-02 18:00S 01°27' W 048°30'0 0.0
2018-Apr-02 17:30S 01°27' W 048°30'0 0.0
2018-Apr-02 17:00S 01°27' W 048°30'0 0.0
2018-Apr-02 16:30S 01°27' W 048°30'0 0.0
2018-Apr-02 15:58S 01°27' W 048°30'0 0.0
2018-Apr-02 15:31S 01°27' W 048°30'0 0.0
2018-Apr-02 14:54S 01°27' W 048°30'0 0.0
2018-Apr-02 14:29S 01°27' W 048°30'0 0.0
2018-Apr-02 13:56S 01°27' W 048°30'0 0.0
2018-Apr-02 13:29S 01°27' W 048°30'0 0.0
2018-Apr-02 12:59S 01°27' W 048°30'0 0.0
2018-Apr-02 12:29S 01°27' W 048°30'0 0.0
2018-Apr-02 11:59S 01°27' W 048°30'0 0.0
2018-Apr-02 11:30S 01°27' W 048°30'0 0.0
2018-Apr-02 10:53S 01°27' W 048°30'0 0.0
2018-Apr-02 10:27S 01°27' W 048°30'0 0.0
2018-Apr-02 09:59S 01°27' W 048°30'0 0.0
2018-Apr-02 09:30S 01°27' W 048°30'0 0.0
2018-Apr-02 08:59S 01°27' W 048°30'0 0.0
2018-Apr-02 08:29S 01°27' W 048°30'0 0.0
2018-Apr-02 07:59S 01°27' W 048°30'0 0.0
2018-Apr-02 07:30S 01°27' W 048°30'0 0.0
2018-Apr-02 07:00S 01°27' W 048°30'0 0.0
2018-Apr-02 06:29S 01°27' W 048°30'0 0.0
2018-Apr-02 06:00S 01°27' W 048°30'0 0.0
2018-Apr-02 05:29S 01°27' W 048°30'0 0.0
2018-Apr-02 04:59S 01°27' W 048°30'0 0.0
2018-Apr-02 04:23S 01°27' W 048°30'0 0.0
2018-Apr-02 03:59S 01°27' W 048°30'0 0.0
2018-Apr-02 03:29S 01°27' W 048°30'0 0.0
2018-Apr-02 02:59S 01°27' W 048°30'0 0.0
2018-Apr-02 02:29S 01°27' W 048°30'0 0.0
2018-Apr-02 01:59S 01°27' W 048°30'0 0.0
2018-Apr-02 01:29S 01°27' W 048°30'0 0.0
2018-Apr-02 00:59S 01°27' W 048°30'0 0.0
2018-Apr-02 00:29S 01°27' W 048°30'0 0.0
2018-Apr-01 23:59S 01°27' W 048°30'0 0.0
2018-Apr-01 23:29S 01°27' W 048°30'0 0.0
2018-Apr-01 22:59S 01°27' W 048°30'0 0.0
2018-Apr-01 22:26S 01°27' W 048°30'0 0.0
2018-Apr-01 21:56S 01°27' W 048°30'0 0.0
2018-Apr-01 21:26S 01°27' W 048°30'0 0.0
2018-Apr-01 20:59S 01°27' W 048°30'0 0.0
2018-Apr-01 20:29S 01°27' W 048°30'0 0.0
2018-Apr-01 19:59S 01°27' W 048°30'0 0.0
2018-Apr-01 19:29S 01°27' W 048°30'0 0.0
2018-Apr-01 18:59S 01°27' W 048°30'0 0.0
2018-Apr-01 18:23S 01°27' W 048°30'0 0.0
2018-Apr-01 17:59S 01°27' W 048°30'0 0.0
2018-Apr-01 17:29S 01°27' W 048°30'0 0.0
2018-Apr-01 16:59S 01°27' W 048°30'0 0.0
2018-Apr-01 16:29S 01°27' W 048°30'0 0.0
2018-Apr-01 15:56S 01°27' W 048°30'0 0.0
2018-Apr-01 15:29S 01°27' W 048°30'0 0.0
2018-Apr-01 14:59S 01°27' W 048°30'0 0.0
2018-Apr-01 14:29S 01°27' W 048°30'0 0.0
2018-Apr-01 13:59S 01°27' W 048°30'0 0.0
2018-Apr-01 13:29S 01°27' W 048°30'0 0.0
2018-Apr-01 12:59S 01°27' W 048°30'0 0.0
2018-Apr-01 12:08S 01°27' W 048°30'0 0.0
2018-Apr-01 11:59S 01°27' W 048°30'0 0.0
2018-Apr-01 11:29S 01°27' W 048°30'0 0.0
2018-Apr-01 10:56S 01°27' W 048°30'0 0.0
2018-Apr-01 10:30S 01°27' W 048°30'0 0.0
2018-Apr-01 09:56S 01°27' W 048°30'0 0.0
2018-Apr-01 09:30S 01°27' W 048°30'0 0.0
2018-Apr-01 09:00S 01°27' W 048°30'0 0.0
2018-Apr-01 08:29S 01°27' W 048°30'0 0.0
2018-Apr-01 07:59S 01°27' W 048°30'0 0.0
2018-Apr-01 07:29S 01°27' W 048°30'0 0.0
2018-Apr-01 06:59S 01°27' W 048°30'0 0.0
2018-Apr-01 06:30S 01°27' W 048°30'0 0.0
2018-Apr-01 06:00S 01°27' W 048°30'0 0.0
2018-Apr-01 05:29S 01°27' W 048°30'0 0.0
2018-Apr-01 04:56S 01°27' W 048°30'0 0.0
2018-Apr-01 04:23S 01°27' W 048°30'0 0.0
2018-Apr-01 03:59S 01°27' W 048°30'0 0.0
2018-Apr-01 03:29S 01°27' W 048°30'0 0.0
2018-Apr-01 02:59S 01°27' W 048°30'0 0.0
2018-Apr-01 02:26S 01°27' W 048°30'0 0.0
2018-Apr-01 01:59S 01°27' W 048°30'0 0.0
2018-Apr-01 01:29S 01°27' W 048°30'0 0.0
2018-Apr-01 00:59S 01°27' W 048°30'0 0.0
2018-Apr-01 00:29S 01°27' W 048°30'0 0.0
2018-Mar-31 23:59S 01°27' W 048°30'0 0.0
2018-Mar-31 23:29S 01°27' W 048°30'0 0.0
2018-Mar-31 22:57S 01°27' W 048°30'0 0.0
2018-Mar-31 22:29S 01°27' W 048°30'0 0.0
2018-Mar-31 21:59S 01°27' W 048°30'0 0.0
2018-Mar-31 21:29S 01°27' W 048°30'0 0.0
2018-Mar-31 20:59S 01°27' W 048°30'0 0.0
2018-Mar-31 20:29S 01°27' W 048°30'0 0.0
2018-Mar-31 19:53S 01°27' W 048°30'0 0.0
2018-Mar-31 19:29S 01°27' W 048°30'0 0.0
2018-Mar-31 18:59S 01°27' W 048°30'0 0.0
2018-Mar-31 18:29S 01°27' W 048°30'0 0.0
2018-Mar-31 17:59S 01°27' W 048°30'0 0.0
2018-Mar-31 17:29S 01°27' W 048°30'0 0.0
2018-Mar-31 16:59S 01°27' W 048°30'0 0.0
2018-Mar-31 16:29S 01°27' W 048°30'0 0.0
2018-Mar-31 15:59S 01°27' W 048°30'0 0.0
2018-Mar-31 15:29S 01°27' W 048°30'0 0.0
2018-Mar-31 14:59S 01°27' W 048°30'0 0.0
2018-Mar-31 14:29S 01°27' W 048°30'0 0.0
2018-Mar-31 13:59S 01°27' W 048°30'0 0.0
2018-Mar-31 13:29S 01°27' W 048°30'0 0.0
2018-Mar-31 12:59S 01°27' W 048°30'0 0.0
2018-Mar-31 12:29S 01°27' W 048°30'0 0.0
2018-Mar-31 11:59S 01°27' W 048°30'0 0.0
2018-Mar-31 11:29S 01°27' W 048°30'0 0.0
2018-Mar-31 11:00S 01°27' W 048°30'0 0.0
2018-Mar-31 10:30S 01°27' W 048°30'0 0.0
2018-Mar-31 10:00S 01°27' W 048°30'0 0.0
2018-Mar-31 09:30S 01°27' W 048°30'0 0.0
2018-Mar-31 09:00S 01°27' W 048°30'0 0.0
2018-Mar-31 08:30S 01°27' W 048°30'0 0.0
2018-Mar-31 08:00S 01°27' W 048°30'0 0.0
2018-Mar-31 07:30S 01°27' W 048°30'0 0.0
2018-Mar-31 06:59S 01°27' W 048°30'0 0.0
2018-Mar-31 06:30S 01°27' W 048°30'0 0.0
2018-Mar-31 05:59S 01°27' W 048°30'0 0.0
2018-Mar-31 05:26S 01°27' W 048°30'0 0.0
2018-Mar-31 04:56S 01°27' W 048°30'0 0.0
2018-Mar-31 04:29S 01°27' W 048°30'0 0.0
2018-Mar-31 03:56S 01°27' W 048°30'0 0.0
2018-Mar-31 03:29S 01°27' W 048°30'0 0.0
2018-Mar-31 02:56S 01°27' W 048°30'0 0.0
2018-Mar-31 02:29S 01°27' W 048°30'0 0.0
2018-Mar-31 01:59S 01°27' W 048°30'0 0.0
2018-Mar-31 01:29S 01°27' W 048°30'0 0.0
2018-Mar-31 00:59S 01°27' W 048°30'0 0.0
2018-Mar-31 00:29S 01°27' W 048°30'0 0.0
2018-Mar-30 23:59S 01°27' W 048°30'0 0.0
2018-Mar-30 23:29S 01°27' W 048°30'0 0.0
2018-Mar-30 22:59S 01°27' W 048°30'0 0.0
2018-Mar-30 22:29S 01°27' W 048°30'0 0.0
2018-Mar-30 21:58S 01°27' W 048°30'0 0.0
2018-Mar-30 21:29S 01°27' W 048°30'0 0.0
2018-Mar-30 20:59S 01°27' W 048°30'0 0.0
2018-Mar-30 20:29S 01°27' W 048°30'0 0.0
2018-Mar-30 19:59S 01°27' W 048°30'0 0.0
2018-Mar-30 19:27S 01°27' W 048°30'0 0.0
2018-Mar-30 18:59S 01°27' W 048°30'0 0.0
2018-Mar-30 18:29S 01°27' W 048°30'0 0.0
2018-Mar-30 17:56S 01°27' W 048°30'0 0.0
2018-Mar-30 17:29S 01°27' W 048°30'0 0.0
2018-Mar-30 16:53S 01°27' W 048°30'0 0.0
2018-Mar-30 16:29S 01°27' W 048°30'0 0.0
2018-Mar-30 15:59S 01°27' W 048°30'0 0.0
2018-Mar-30 15:26S 01°27' W 048°30'0 0.0
2018-Mar-30 14:59S 01°27' W 048°30'0 0.0
2018-Mar-30 14:28S 01°27' W 048°30'0 0.0
2018-Mar-30 13:58S 01°27' W 048°30'0 0.0
2018-Mar-30 13:30S 01°27' W 048°30'1 2.1
2018-Mar-30 13:00S 01°26' W 048°30'510.7
2018-Mar-30 12:30S 01°21' W 048°29'612.8
2018-Mar-30 12:00S 01°14' W 048°30'612.3
2018-Mar-30 11:30S 01°08' W 048°29'53 5.8
2018-Mar-30 02:13S 00°21' W 048°04'1 5.7
2018-Mar-30 02:00S 00°20' W 048°03'3 5.8
2018-Mar-30 01:30S 00°19' W 048°01'3 5.8
2018-Mar-30 01:01S 00°18' W 047°58'13 5.7
2018-Mar-29 22:39S 00°08' W 047°48'21 4.2
2018-Mar-29 17:40N 00°08' W 047°35'2 5.8
2018-Mar-29 17:21N 00°09' W 047°34'2 4.6
2018-Mar-29 16:59N 00°10' W 047°33'  

Dump ship's entire track history